createdAt,value
2023-09-30T00:02:00.221Z,94.94
2023-09-30T00:04:28.957Z,94.99
2023-09-30T00:06:56.372Z,95.24
2023-09-30T00:09:23.501Z,95.16
2023-09-30T00:11:50.600Z,94.84
2023-09-30T00:14:18.496Z,95.24
2023-09-30T00:16:45.871Z,95.10
2023-09-30T00:19:13.408Z,95.09
2023-09-30T00:21:40.877Z,95.05
2023-09-30T00:24:08.128Z,94.74
2023-09-30T00:26:35.152Z,94.58
2023-09-30T00:29:05.930Z,94.68
2023-09-30T00:31:33.762Z,94.37
2023-09-30T00:34:00.808Z,93.54
2023-09-30T00:36:28.074Z,93.71
2023-09-30T00:38:55.288Z,93.42
2023-09-30T00:41:22.479Z,93.04
2023-09-30T00:43:49.742Z,92.57
2023-09-30T00:46:26.749Z,92.15
2023-09-30T00:48:55.134Z,92.32
2023-09-30T00:51:23.786Z,91.67
2023-09-30T00:53:56.206Z,91.16
2023-09-30T00:56:27.301Z,90.69
2023-09-30T00:58:54.934Z,90.76
2023-09-30T01:01:22.751Z,90.06
2023-09-30T01:03:50.645Z,89.78
2023-09-30T01:06:17.880Z,89.21
2023-09-30T01:08:45.411Z,89.12
2023-09-30T01:11:13.875Z,88.97
2023-09-30T01:13:41.281Z,89.07
2023-09-30T01:16:13.201Z,89.38
2023-09-30T01:18:44.440Z,89.06
2023-09-30T01:21:12.490Z,88.79
2023-09-30T01:23:42.383Z,89.13
2023-09-30T01:26:12.419Z,89.12
2023-09-30T01:28:40.326Z,88.85
2023-09-30T01:31:07.652Z,88.84
2023-09-30T01:33:36.592Z,89.00
2023-09-30T01:36:04.502Z,88.48
2023-09-30T01:38:31.621Z,88.34
2023-09-30T01:41:01.140Z,88.29
2023-09-30T01:43:29.597Z,87.93
2023-09-30T01:45:57.250Z,87.80
2023-09-30T01:48:24.517Z,87.67
2023-09-30T01:50:52.859Z,86.57
2023-09-30T01:53:19.963Z,86.01
2023-09-30T01:55:47.079Z,85.56
2023-09-30T01:58:15.042Z,84.96
2023-09-30T02:00:42.191Z,84.63
2023-09-30T02:03:09.444Z,84.35
2023-09-30T02:05:38.103Z,84.06
2023-09-30T02:08:07.263Z,83.83
2023-09-30T02:10:34.839Z,83.42
2023-09-30T02:13:02.798Z,83.25
2023-09-30T02:15:29.963Z,83.26
2023-09-30T02:17:57.312Z,83.39
2023-09-30T02:20:27.154Z,83.47
2023-09-30T02:22:55.674Z,82.92
2023-09-30T02:25:22.877Z,82.73
2023-09-30T02:27:51.936Z,82.51
2023-09-30T02:30:20.630Z,82.79
2023-09-30T02:32:48.464Z,83.01
2023-09-30T02:35:16.814Z,83.05
2023-09-30T02:37:44.367Z,82.82
2023-09-30T02:40:12.204Z,82.67
2023-09-30T02:42:41.036Z,82.67
2023-09-30T02:45:09.660Z,82.78
2023-09-30T02:47:38.257Z,83.05
2023-09-30T02:50:12.677Z,82.74
2023-09-30T02:52:43.321Z,82.88
2023-09-30T02:55:11.857Z,82.82
2023-09-30T02:57:39.869Z,82.44
2023-09-30T03:00:24.673Z,82.67
2023-09-30T03:02:53.711Z,82.57
2023-09-30T03:05:21.495Z,82.31
2023-09-30T03:07:49.509Z,82.41
2023-09-30T03:10:21.761Z,82.21
2023-09-30T03:12:49.856Z,82.24
2023-09-30T03:15:18.191Z,81.82
2023-09-30T03:17:45.537Z,81.34
2023-09-30T03:20:13.471Z,81.29
2023-09-30T03:22:44.558Z,81.27
2023-09-30T03:25:12.882Z,80.95
2023-09-30T03:27:40.266Z,80.49
2023-09-30T03:30:08.380Z,80.50
2023-09-30T03:32:39.526Z,80.06
2023-09-30T03:35:08.689Z,80.04
2023-09-30T03:37:35.942Z,80.19
2023-09-30T03:40:13.074Z,79.54
2023-09-30T03:42:44.079Z,79.94
2023-09-30T03:45:12.552Z,79.67
2023-09-30T03:47:43.299Z,79.79
2023-09-30T03:50:15.335Z,79.74
2023-09-30T03:52:48.076Z,79.85
2023-09-30T03:55:20.657Z,79.88
2023-09-30T03:57:50.305Z,79.87
2023-09-30T04:00:21.279Z,80.43
2023-09-30T04:02:52.614Z,80.71
2023-09-30T04:05:20.641Z,80.47
2023-09-30T04:07:48.444Z,80.42
2023-09-30T04:10:16.006Z,80.53
2023-09-30T04:12:43.220Z,80.63
2023-09-30T04:15:13.408Z,80.78
2023-09-30T04:17:41.097Z,80.96
2023-09-30T04:20:17.476Z,81.35
2023-09-30T04:22:50.414Z,81.56
2023-09-30T04:25:19.294Z,81.66
2023-09-30T04:27:47.570Z,81.85
2023-09-30T04:30:16.629Z,81.99
2023-09-30T04:32:44.904Z,82.53
2023-09-30T04:35:12.463Z,82.56
2023-09-30T04:37:39.880Z,82.50
2023-09-30T04:40:28.007Z,82.57
2023-09-30T04:42:59.909Z,82.67
2023-09-30T04:45:28.341Z,82.20
2023-09-30T04:47:59.229Z,82.74
2023-09-30T04:50:26.335Z,82.73
2023-09-30T04:52:53.478Z,82.59
2023-09-30T04:55:21.317Z,82.42
2023-09-30T04:57:49.555Z,82.44
2023-09-30T05:00:20.397Z,81.88
2023-09-30T05:02:48.043Z,81.51
2023-09-30T05:05:16.462Z,81.71
2023-09-30T05:07:44.140Z,82.09
2023-09-30T05:10:14.890Z,81.75
2023-09-30T05:12:47.404Z,80.60
2023-09-30T05:15:17.302Z,80.02
2023-09-30T05:17:45.437Z,79.36
2023-09-30T05:20:13.965Z,78.66
2023-09-30T05:22:43.923Z,76.41
2023-09-30T05:25:11.624Z,75.01
2023-09-30T05:27:38.838Z,73.67
2023-09-30T05:30:07.694Z,72.34
2023-09-30T05:32:36.012Z,70.71
2023-09-30T05:35:06.620Z,68.60
2023-09-30T05:37:34.103Z,66.88
2023-09-30T05:40:02.095Z,63.85
2023-09-30T05:42:29.152Z,61.61
2023-09-30T05:44:56.227Z,58.98
2023-09-30T05:47:23.222Z,56.91
2023-09-30T05:49:50.367Z,56.74
2023-09-30T05:52:17.588Z,55.95
2023-09-30T05:54:44.749Z,54.78
2023-09-30T05:57:11.935Z,54.08
2023-09-30T05:59:39.017Z,53.37
2023-09-30T06:02:06.443Z,53.55
2023-09-30T06:04:34.823Z,53.82
2023-09-30T06:07:01.925Z,53.83
2023-09-30T06:09:31.869Z,54.35
2023-09-30T06:11:59.169Z,53.39
2023-09-30T06:14:29.242Z,54.49
2023-09-30T06:16:57.004Z,54.34
2023-09-30T06:19:24.847Z,53.85
2023-09-30T06:21:51.864Z,54.73
2023-09-30T06:24:21.297Z,52.55
2023-09-30T06:26:50.050Z,51.27
2023-09-30T06:29:17.434Z,49.12
2023-09-30T06:31:44.794Z,47.87
2023-09-30T06:34:12.544Z,46.74
2023-09-30T06:36:39.590Z,46.55
2023-09-30T06:39:07.053Z,46.05
2023-09-30T06:41:34.680Z,47.88
2023-09-30T06:44:03.179Z,48.02
2023-09-30T06:46:30.714Z,48.86
2023-09-30T06:48:57.996Z,49.87
2023-09-30T06:51:25.421Z,49.65
2023-09-30T06:53:53.114Z,51.17
2023-09-30T06:56:20.243Z,51.29
2023-09-30T06:58:47.269Z,51.88
2023-09-30T07:01:18.215Z,51.01
2023-09-30T07:03:45.475Z,51.09
2023-09-30T07:06:12.599Z,51.08
2023-09-30T07:08:39.537Z,51.11
2023-09-30T07:11:06.889Z,53.00
2023-09-30T07:13:34.008Z,55.22
2023-09-30T07:16:01.419Z,56.00
2023-09-30T07:18:28.967Z,56.56
2023-09-30T07:20:56.166Z,54.59
2023-09-30T07:23:23.527Z,54.25
2023-09-30T07:25:50.591Z,52.22
2023-09-30T07:28:17.748Z,51.20
2023-09-30T07:30:46.002Z,51.17
2023-09-30T07:33:13.157Z,51.60
2023-09-30T07:35:40.517Z,50.67
2023-09-30T07:38:07.793Z,51.62
2023-09-30T07:40:34.921Z,53.19
2023-09-30T07:43:02.136Z,54.55
2023-09-30T07:45:29.673Z,53.81
2023-09-30T07:47:57.199Z,55.54
2023-09-30T07:50:24.199Z,55.85
2023-09-30T07:52:51.524Z,54.86
2023-09-30T07:55:18.547Z,55.97
2023-09-30T07:57:45.750Z,59.06
2023-09-30T08:00:17.061Z,58.96
2023-09-30T08:02:45.709Z,59.35
2023-09-30T08:05:13.363Z,58.82
2023-09-30T08:07:40.717Z,58.40
2023-09-30T08:10:13.530Z,58.34
2023-09-30T08:12:42.504Z,58.72
2023-09-30T08:15:13.502Z,59.09
2023-09-30T08:17:41.100Z,59.40
2023-09-30T08:20:11.002Z,60.35
2023-09-30T08:22:38.523Z,61.22
2023-09-30T08:25:07.707Z,62.12
2023-09-30T08:27:35.795Z,62.74
2023-09-30T08:30:06.716Z,62.22
2023-09-30T08:32:37.945Z,63.36
2023-09-30T08:35:05.833Z,62.93
2023-09-30T08:37:32.995Z,62.83
2023-09-30T08:40:00.427Z,63.47
2023-09-30T08:42:34.377Z,63.67
2023-09-30T08:45:02.024Z,63.23
2023-09-30T08:47:30.311Z,62.39
2023-09-30T08:50:07.422Z,64.17
2023-09-30T08:52:39.269Z,63.10
2023-09-30T08:55:11.367Z,62.91
2023-09-30T08:57:43.160Z,62.96
2023-09-30T09:00:14.916Z,63.30
2023-09-30T09:02:43.696Z,63.31
2023-09-30T09:05:12.098Z,63.88
2023-09-30T09:07:40.066Z,63.87
2023-09-30T09:10:14.224Z,63.88
2023-09-30T09:12:42.629Z,62.84
2023-09-30T09:15:23.289Z,63.31
2023-09-30T09:17:52.220Z,64.43
2023-09-30T09:20:24.078Z,64.31
2023-09-30T09:22:57.666Z,64.81
2023-09-30T09:25:25.604Z,64.97
2023-09-30T09:27:56.376Z,65.87
2023-09-30T09:30:28.598Z,65.69
2023-09-30T09:33:09.155Z,65.47
2023-09-30T09:35:36.860Z,65.73
2023-09-30T09:38:08.803Z,65.21
2023-09-30T09:40:37.717Z,65.61
2023-09-30T09:43:06.809Z,66.74
2023-09-30T09:45:36.777Z,67.22
2023-09-30T09:48:06.151Z,67.50
2023-09-30T09:50:34.457Z,67.24
2023-09-30T09:53:02.123Z,68.32
2023-09-30T09:55:29.450Z,66.53
2023-09-30T09:57:59.285Z,68.04
2023-09-30T10:00:27.635Z,67.45
2023-09-30T10:02:55.107Z,67.53
2023-09-30T10:05:22.999Z,68.68
2023-09-30T10:07:57.982Z,68.67
2023-09-30T10:10:26.432Z,67.22
2023-09-30T10:12:53.688Z,67.75
2023-09-30T10:15:26.983Z,68.18
2023-09-30T10:18:05.361Z,68.35
2023-09-30T10:20:33.875Z,68.88
2023-09-30T10:23:19.154Z,68.10
2023-09-30T10:25:49.059Z,68.82
2023-09-30T10:28:40.293Z,69.10
2023-09-30T10:31:14.152Z,69.53
2023-09-30T10:34:00.464Z,68.99
2023-09-30T10:36:42.332Z,69.09
2023-09-30T10:39:16.503Z,68.21
2023-09-30T10:41:46.688Z,69.11
2023-09-30T10:44:31.055Z,68.92
2023-09-30T10:47:22.595Z,69.61
2023-09-30T10:49:49.755Z,68.95
2023-09-30T10:52:27.478Z,69.09
2023-09-30T10:54:55.352Z,70.35
2023-09-30T10:57:32.092Z,71.02
2023-09-30T11:00:17.555Z,70.46
2023-09-30T11:02:52.591Z,70.44
2023-09-30T11:05:32.262Z,71.50
2023-09-30T11:08:09.385Z,71.79
2023-09-30T11:10:36.978Z,71.02
2023-09-30T11:13:04.971Z,71.84
2023-09-30T11:15:32.433Z,71.79
2023-09-30T11:18:17.767Z,72.51
2023-09-30T11:20:45.913Z,73.26
2023-09-30T11:23:13.658Z,73.96
2023-09-30T11:25:43.498Z,74.31
2023-09-30T11:28:17.830Z,75.80
2023-09-30T11:30:58.600Z,75.76
2023-09-30T11:33:27.050Z,73.81
2023-09-30T11:36:12.368Z,74.02
2023-09-30T11:38:46.284Z,74.58
2023-09-30T11:41:13.592Z,75.17
2023-09-30T11:44:01.722Z,74.87
2023-09-30T11:46:29.174Z,74.42
2023-09-30T11:49:02.343Z,74.49
2023-09-30T11:51:30.901Z,73.44
2023-09-30T11:54:01.551Z,73.83
2023-09-30T11:56:31.402Z,74.53
2023-09-30T11:58:58.707Z,74.74
2023-09-30T12:01:26.723Z,73.90
2023-09-30T12:03:58.439Z,73.01
2023-09-30T12:06:26.509Z,73.13
2023-09-30T12:08:53.646Z,73.77
2023-09-30T12:11:21.013Z,72.85
2023-09-30T12:13:50.187Z,74.24
2023-09-30T12:16:18.032Z,72.40
2023-09-30T12:18:46.398Z,69.13
2023-09-30T12:21:21.551Z,69.62
2023-09-30T12:23:49.879Z,70.10
2023-09-30T12:26:20.428Z,69.87
2023-09-30T12:28:48.447Z,70.19
2023-09-30T12:31:16.961Z,69.72
2023-09-30T12:33:44.588Z,70.12
2023-09-30T12:36:14.283Z,69.26
2023-09-30T12:38:41.565Z,68.62
2023-09-30T12:41:09.405Z,69.20
2023-09-30T12:43:36.568Z,68.24
2023-09-30T12:46:03.845Z,67.88
2023-09-30T12:48:31.127Z,67.73
2023-09-30T12:50:58.489Z,68.72
2023-09-30T12:53:25.805Z,70.68
2023-09-30T12:55:52.866Z,73.26
2023-09-30T12:58:19.930Z,74.63
2023-09-30T13:00:46.985Z,75.31
2023-09-30T13:03:16.830Z,73.66
2023-09-30T13:05:44.435Z,74.67
2023-09-30T13:08:12.485Z,74.81
2023-09-30T13:10:39.923Z,73.97
2023-09-30T13:13:07.029Z,74.58
2023-09-30T13:15:34.529Z,75.25
2023-09-30T13:18:03.832Z,75.49
2023-09-30T13:20:30.828Z,74.85
2023-09-30T13:22:58.687Z,75.68
2023-09-30T13:25:25.848Z,75.74
2023-09-30T13:27:53.219Z,75.15
2023-09-30T13:30:20.297Z,75.52
2023-09-30T13:32:47.614Z,76.73
2023-09-30T13:35:14.735Z,76.24
2023-09-30T13:37:44.815Z,76.22
2023-09-30T13:40:14.506Z,76.99
2023-09-30T13:42:42.041Z,77.32
2023-09-30T13:45:10.843Z,78.28
2023-09-30T13:47:38.004Z,77.78
2023-09-30T13:50:07.341Z,77.64
2023-09-30T13:52:36.418Z,76.09
2023-09-30T13:55:06.358Z,76.01
2023-09-30T13:57:33.758Z,75.00
2023-09-30T14:00:01.225Z,75.32
2023-09-30T14:02:28.594Z,75.46
2023-09-30T14:04:56.640Z,76.16
2023-09-30T14:07:24.502Z,77.04
2023-09-30T14:09:53.908Z,77.24
2023-09-30T14:12:21.155Z,76.23
2023-09-30T14:14:48.240Z,76.81
2023-09-30T14:17:16.530Z,77.72
2023-09-30T14:19:43.718Z,78.00
2023-09-30T14:22:11.036Z,76.92
2023-09-30T14:24:38.312Z,76.76
2023-09-30T14:27:06.179Z,77.70
2023-09-30T14:29:33.528Z,79.13
2023-09-30T14:32:00.966Z,79.43
2023-09-30T14:34:28.031Z,79.21
2023-09-30T14:36:55.151Z,78.77
2023-09-30T14:39:22.489Z,78.10
2023-09-30T14:41:49.475Z,78.00
2023-09-30T14:44:16.621Z,77.47
2023-09-30T14:46:44.528Z,76.49
2023-09-30T14:49:11.852Z,75.92
2023-09-30T14:51:39.354Z,76.10
2023-09-30T14:54:06.770Z,75.94
2023-09-30T14:56:34.194Z,75.77
2023-09-30T14:59:01.520Z,75.99
2023-09-30T15:01:28.823Z,76.18
2023-09-30T15:03:56.171Z,76.92
2023-09-30T15:06:25.765Z,77.47
2023-09-30T15:08:52.982Z,78.11
2023-09-30T15:11:20.313Z,78.57
2023-09-30T15:13:47.612Z,79.20
2023-09-30T15:16:18.146Z,78.30
2023-09-30T15:18:47.017Z,78.77
2023-09-30T15:21:15.504Z,79.23
2023-09-30T15:23:43.626Z,78.89
2023-09-30T15:26:11.723Z,78.42
2023-09-30T15:28:39.274Z,77.96
2023-09-30T15:31:07.954Z,78.64
2023-09-30T15:33:35.608Z,78.57
2023-09-30T15:36:12.635Z,79.14
2023-09-30T15:38:41.211Z,79.32
2023-09-30T15:41:08.420Z,79.83
2023-09-30T15:43:37.110Z,80.06
2023-09-30T15:46:04.823Z,79.90
2023-09-30T15:48:34.705Z,78.93
2023-09-30T15:51:02.147Z,78.99
2023-09-30T15:53:29.965Z,79.32
2023-09-30T15:55:57.306Z,79.08
2023-09-30T15:58:25.676Z,79.74
2023-09-30T16:00:53.044Z,80.11
2023-09-30T16:03:24.163Z,80.49
2023-09-30T16:05:53.167Z,80.28
2023-09-30T16:08:20.695Z,80.42
2023-09-30T16:10:48.201Z,80.54
2023-09-30T16:13:15.735Z,80.83
2023-09-30T16:15:44.957Z,80.57
2023-09-30T16:18:14.886Z,80.50
2023-09-30T16:20:42.664Z,80.39
2023-09-30T16:23:11.123Z,80.82
2023-09-30T16:25:38.271Z,80.48
2023-09-30T16:28:06.789Z,81.38
2023-09-30T16:30:34.079Z,81.27
2023-09-30T16:33:01.480Z,80.98
2023-09-30T16:35:28.606Z,80.96
2023-09-30T16:37:55.739Z,81.34
2023-09-30T16:40:23.422Z,81.95
2023-09-30T16:42:50.673Z,82.58
2023-09-30T16:45:18.913Z,82.80
2023-09-30T16:47:48.723Z,82.72
2023-09-30T16:50:16.025Z,82.60
2023-09-30T16:52:46.176Z,83.07
2023-09-30T16:55:14.287Z,83.78
2023-09-30T16:57:42.170Z,84.47
2023-09-30T17:00:12.358Z,84.65
2023-09-30T17:02:39.850Z,85.25
2023-09-30T17:05:08.116Z,84.77
2023-09-30T17:07:36.113Z,85.16
2023-09-30T17:10:05.862Z,85.21
2023-09-30T17:12:33.226Z,84.92
2023-09-30T17:15:02.650Z,85.68
2023-09-30T17:17:34.149Z,86.01
2023-09-30T17:20:01.928Z,86.03
2023-09-30T17:22:29.090Z,85.97
2023-09-30T17:24:57.599Z,86.49
2023-09-30T17:27:24.832Z,86.50
2023-09-30T17:29:52.097Z,86.44
2023-09-30T17:32:21.185Z,87.27
2023-09-30T17:34:48.365Z,87.47
2023-09-30T17:37:21.897Z,87.88
2023-09-30T17:39:48.867Z,87.71
2023-09-30T17:42:17.088Z,87.86
2023-09-30T17:44:44.183Z,88.23
2023-09-30T17:47:11.249Z,88.29
2023-09-30T17:49:39.378Z,88.34
2023-09-30T17:52:06.601Z,88.32
2023-09-30T17:54:34.640Z,88.51
2023-09-30T17:57:01.735Z,88.58
2023-09-30T17:59:28.773Z,88.61
2023-09-30T18:01:56.065Z,88.90
2023-09-30T18:04:23.225Z,88.41
2023-09-30T18:06:51.650Z,88.67
2023-09-30T18:09:18.745Z,88.91
2023-09-30T18:11:45.970Z,88.60
2023-09-30T18:14:17.503Z,88.56
2023-09-30T18:16:45.301Z,87.97
2023-09-30T18:19:12.798Z,88.07
2023-09-30T18:21:40.214Z,88.16
2023-09-30T18:24:07.489Z,87.86
2023-09-30T18:26:34.606Z,87.87
2023-09-30T18:29:02.543Z,87.71
2023-09-30T18:31:29.723Z,87.79
2023-09-30T18:33:57.090Z,87.39
2023-09-30T18:36:24.182Z,87.59
2023-09-30T18:38:51.386Z,88.00
2023-09-30T18:41:19.841Z,88.62
2023-09-30T18:43:48.476Z,88.26
2023-09-30T18:46:16.112Z,88.50
2023-09-30T18:48:43.667Z,88.57
2023-09-30T18:51:13.139Z,88.36
2023-09-30T18:53:41.321Z,88.01
2023-09-30T18:56:08.523Z,88.09
2023-09-30T18:58:35.709Z,87.68
2023-09-30T19:01:02.757Z,87.84
2023-09-30T19:03:30.083Z,87.54
2023-09-30T19:05:58.051Z,87.37
2023-09-30T19:08:25.631Z,86.98
2023-09-30T19:10:52.653Z,87.29
2023-09-30T19:13:19.776Z,86.98
2023-09-30T19:15:47.501Z,86.98
2023-09-30T19:18:14.869Z,86.66
2023-09-30T19:20:47.415Z,86.82
2023-09-30T19:23:15.281Z,86.75
2023-09-30T19:25:42.419Z,86.79
2023-09-30T19:28:09.727Z,86.59
2023-09-30T19:30:36.843Z,87.28
2023-09-30T19:33:04.371Z,87.38
2023-09-30T19:35:31.425Z,86.93
2023-09-30T19:37:58.521Z,86.77
2023-09-30T19:40:25.592Z,86.35
2023-09-30T19:42:52.793Z,86.55
2023-09-30T19:45:20.690Z,86.19
2023-09-30T19:47:47.776Z,86.30
2023-09-30T19:50:14.916Z,85.89
2023-09-30T19:52:42.094Z,86.06
2023-09-30T19:55:09.215Z,85.82
2023-09-30T19:57:36.333Z,84.82
2023-09-30T20:00:05.573Z,84.88
2023-09-30T20:02:32.735Z,84.39
2023-09-30T20:05:00.320Z,84.49
2023-09-30T20:07:27.438Z,84.07
2023-09-30T20:09:54.735Z,84.04
2023-09-30T20:12:23.495Z,84.32
2023-09-30T20:14:50.581Z,84.08
2023-09-30T20:17:17.792Z,84.44
2023-09-30T20:19:44.924Z,84.41
2023-09-30T20:22:12.177Z,84.70
2023-09-30T20:24:39.388Z,84.63
2023-09-30T20:27:06.610Z,85.31
2023-09-30T20:29:33.797Z,85.24
2023-09-30T20:32:00.906Z,85.39
2023-09-30T20:34:28.722Z,85.59
2023-09-30T20:36:56.011Z,85.54
2023-09-30T20:39:23.335Z,85.77
2023-09-30T20:41:53.259Z,85.81
2023-09-30T20:44:20.245Z,85.96
2023-09-30T20:46:49.029Z,86.37
2023-09-30T20:49:19.377Z,86.34
2023-09-30T20:51:47.143Z,86.40
2023-09-30T20:54:14.835Z,86.97
2023-09-30T20:56:42.831Z,87.29
2023-09-30T20:59:12.140Z,87.31
2023-09-30T21:01:39.765Z,87.36
2023-09-30T21:04:07.904Z,87.78
2023-09-30T21:06:35.807Z,88.40
2023-09-30T21:09:02.870Z,88.20
2023-09-30T21:11:30.271Z,88.31
2023-09-30T21:13:57.249Z,88.88
2023-09-30T21:16:24.579Z,88.79
2023-09-30T21:18:51.797Z,89.22
2023-09-30T21:21:20.161Z,89.16
2023-09-30T21:23:47.186Z,89.65
2023-09-30T21:26:15.257Z,89.69
2023-09-30T21:28:47.276Z,90.01
2023-09-30T21:31:22.336Z,90.21
2023-09-30T21:33:50.940Z,90.54
2023-09-30T21:36:19.804Z,90.55
2023-09-30T21:38:48.563Z,90.25
2023-09-30T21:41:23.058Z,90.18
2023-09-30T21:43:50.307Z,90.31
2023-09-30T21:46:17.494Z,90.53
2023-09-30T21:48:44.730Z,90.41
2023-09-30T21:51:12.002Z,90.31
2023-09-30T21:53:39.288Z,90.09
2023-09-30T21:56:06.420Z,89.70
2023-09-30T21:58:33.633Z,89.41
2023-09-30T22:01:01.006Z,89.31
2023-09-30T22:03:29.692Z,88.88
2023-09-30T22:05:57.354Z,88.32
2023-09-30T22:08:26.279Z,88.57
2023-09-30T22:10:55.374Z,88.46
2023-09-30T22:13:24.418Z,88.05
2023-09-30T22:15:52.338Z,88.14
2023-09-30T22:18:20.459Z,88.16
2023-09-30T22:20:48.024Z,87.83
2023-09-30T22:23:15.148Z,87.97
2023-09-30T22:25:42.348Z,87.77
2023-09-30T22:28:09.868Z,87.64
2023-09-30T22:30:38.110Z,87.42
2023-09-30T22:33:07.210Z,87.26
2023-09-30T22:35:34.841Z,87.02
2023-09-30T22:38:02.404Z,86.90
2023-09-30T22:40:29.623Z,86.63
2023-09-30T22:42:57.508Z,86.52
2023-09-30T22:45:24.666Z,86.45
2023-09-30T22:47:54.191Z,86.47
2023-09-30T22:50:23.575Z,85.94
2023-09-30T22:52:51.580Z,85.93
2023-09-30T22:55:23.579Z,85.83
2023-09-30T22:57:51.815Z,85.48
2023-09-30T23:00:21.167Z,85.36
2023-09-30T23:02:49.368Z,85.56
2023-09-30T23:05:19.124Z,85.58
2023-09-30T23:07:47.114Z,85.80
2023-09-30T23:10:16.091Z,85.72
2023-09-30T23:12:43.683Z,86.02
2023-09-30T23:15:12.372Z,85.97
2023-09-30T23:17:44.535Z,85.98
2023-09-30T23:20:16.522Z,87.06
2023-09-30T23:22:54.433Z,87.01
2023-09-30T23:25:36.036Z,87.12
2023-09-30T23:28:04.245Z,87.25
2023-09-30T23:30:31.431Z,87.21
2023-09-30T23:32:59.681Z,87.39
2023-09-30T23:35:31.150Z,87.30
2023-09-30T23:38:03.228Z,87.51
2023-09-30T23:40:34.249Z,87.36
2023-09-30T23:43:02.269Z,87.29
2023-09-30T23:45:32.754Z,87.39
2023-09-30T23:48:00.178Z,86.99
2023-09-30T23:50:30.987Z,87.04
2023-09-30T23:53:00.956Z,86.94
2023-09-30T23:55:29.375Z,86.96
2023-09-30T23:57:57.000Z,86.88
